Time;durP1;ratioP1;P1;durP2;ratioP2;P2;SDS_P1;SDS_P2;PMS_P1;PMS_P2;Temp;Humidity;BMP_temperature;BMP_pressure;BME280_temperature;BME280_humidity;BME280_pressure;Samples;Min_cycle;Max_cycle;Signal;HPM_P1;HPM_P2
2022/06/02 00:01:55;;;;;;;7.10;5.80;;;;;;;;;;4995732;28;93991;-75
2022/06/02 00:04:24;;;;;;;10.43;6.47;;;;;;;;;;5013546;28;92389;-75
2022/06/02 00:06:56;;;;;;;9.05;6.50;;;;;;;;;;4996683;28;92447;-75
2022/06/02 00:09:40;;;;;;;7.50;6.68;;;;;;;;;;4996076;28;93718;-75
2022/06/02 00:12:07;;;;;;;10.10;6.65;;;;;;;;;;5006476;28;94788;-75
2022/06/02 00:14:37;;;;;;;10.98;8.00;;;;;;;;;;5009036;28;95596;-75
2022/06/02 00:17:15;;;;;;;9.63;7.10;;;;;;;;;;5005598;28;93621;-75
2022/06/02 00:20:10;;;;;;;8.63;6.55;;;;;;;;;;5013634;28;92478;-75
2022/06/02 00:22:55;;;;;;;10.57;6.82;;;;;;;;;;5002253;28;93557;-75
2022/06/02 00:25:40;;;;;;;8.30;7.00;;;;;;;;;;5001927;28;92528;-76
2022/06/02 00:28:25;;;;;;;8.77;7.57;;;;;;;;;;4996555;28;93721;-75
2022/06/02 00:31:12;;;;;;;10.82;7.95;;;;;;;;;;5013112;28;94520;-74
2022/06/02 00:33:49;;;;;;;9.05;6.97;;;;;;;;;;4995756;28;92532;-74
2022/06/02 00:36:21;;;;;;;9.27;7.80;;;;;;;;;;5010651;28;93291;-74
2022/06/02 00:38:47;;;;;;;10.98;7.82;;;;;;;;;;5000363;28;95868;-74
2022/06/02 00:41:25;;;;;;;9.43;7.88;;;;;;;;;;5013073;28;92493;-74
2022/06/02 00:44:03;;;;;;;9.38;8.32;;;;;;;;;;5012557;28;93160;-75
2022/06/02 00:46:35;;;;;;;10.73;8.93;;;;;;;;;;5017316;28;93348;-74
2022/06/02 00:49:26;;;;;;;12.75;9.45;;;;;;;;;;5012694;28;93729;-74
2022/06/02 00:51:58;;;;;;;11.45;9.18;;;;;;;;;;5011329;28;93442;-74
2022/06/02 00:57:40;;;;;;;12.35;9.27;;;;;;;;;;5009487;28;92973;-75
2022/06/02 01:00:30;;;;;;;12.43;9.15;;;;;;;;;;5010950;28;94276;-75
2022/06/02 01:03:05;;;;;;;12.75;8.73;;;;;;;;;;5002215;28;92497;-75
2022/06/02 01:05:45;;;;;;;9.82;8.75;;;;;;;;;;5009242;28;94856;-75
2022/06/02 01:08:16;;;;;;;12.00;8.65;;;;;;;;;;5006438;28;93940;-75
2022/06/02 01:10:43;;;;;;;11.65;9.00;;;;;;;;;;4995115;28;92511;-75
2022/06/02 01:13:18;;;;;;;12.15;8.05;;;;;;;;;;5012102;28;95067;-74
2022/06/02 01:15:49;;;;;;;8.70;7.80;;;;;;;;;;5012608;28;92700;-75
2022/06/02 01:18:22;;;;;;;10.25;8.60;;;;;;;;;;4989241;28;92846;-75
2022/06/02 01:20:51;;;;;;;11.43;8.63;;;;;;;;;;5003317;28;93455;-75
2022/06/02 01:23:23;;;;;;;11.25;9.82;;;;;;;;;;5012655;28;91766;-74
2022/06/02 01:26:02;;;;;;;12.02;9.13;;;;;;;;;;5011869;28;92880;-76
2022/06/02 01:28:28;;;;;;;12.30;9.25;;;;;;;;;;5011582;28;94667;-76
2022/06/02 01:31:06;;;;;;;16.17;9.60;;;;;;;;;;4990435;28;94980;-75
2022/06/02 01:33:39;;;;;;;14.00;9.82;;;;;;;;;;5008602;28;95595;-75
2022/06/02 01:36:20;;;;;;;12.10;10.27;;;;;;;;;;5007104;28;92570;-75
2022/06/02 01:38:50;;;;;;;13.93;10.52;;;;;;;;;;4997594;28;93407;-75
2022/06/02 01:41:22;;;;;;;11.48;10.25;;;;;;;;;;5016040;28;93399;-75
2022/06/02 01:43:49;;;;;;;16.90;12.23;;;;;;;;;;4997130;28;92525;-75
2022/06/02 01:46:33;;;;;;;12.07;10.77;;;;;;;;;;4995553;28;93370;-75
2022/06/02 01:49:08;;;;;;;12.95;10.35;;;;;;;;;;4996083;28;92660;-74
2022/06/02 01:51:41;;;;;;;13.63;11.07;;;;;;;;;;5012552;28;92636;-75
2022/06/02 01:54:10;;;;;;;13.38;11.10;;;;;;;;;;5016125;28;93467;-75
2022/06/02 01:56:37;;;;;;;13.75;12.15;;;;;;;;;;4983213;28;95055;-75
2022/06/02 01:59:14;;;;;;;12.65;11.25;;;;;;;;;;4996766;28;96123;-76
2022/06/02 02:01:44;;;;;;;17.60;11.70;;;;;;;;;;5010873;28;93797;-76
2022/06/02 02:04:10;;;;;;;13.63;12.23;;;;;;;;;;5005102;28;92471;-75
2022/06/02 02:06:56;;;;;;;17.20;11.80;;;;;;;;;;5015836;28;93289;-74
2022/06/02 02:09:31;;;;;;;18.13;12.18;;;;;;;;;;5004891;28;94612;-75
2022/06/02 02:11:59;;;;;;;13.63;12.05;;;;;;;;;;4997913;28;92538;-75
2022/06/02 02:14:44;;;;;;;17.50;12.75;;;;;;;;;;4995607;28;93695;-75
2022/06/02 02:17:20;;;;;;;15.65;12.32;;;;;;;;;;5017815;28;93454;-75
2022/06/02 02:19:55;;;;;;;12.15;10.88;;;;;;;;;;5011420;28;93262;-75
2022/06/02 02:22:43;;;;;;;13.15;11.15;;;;;;;;;;4995523;28;95962;-74
2022/06/02 02:25:13;;;;;;;12.13;10.73;;;;;;;;;;4995571;28;92483;-75
2022/06/02 02:30:27;;;;;;;16.27;11.10;;;;;;;;;;5015025;28;93746;-75
2022/06/02 02:33:12;;;;;;;11.68;10.48;;;;;;;;;;4992189;28;92905;-74
2022/06/02 02:35:38;;;;;;;13.77;10.30;;;;;;;;;;5014106;28;93180;-74
2022/06/02 02:38:13;;;;;;;11.32;9.85;;;;;;;;;;5013081;28;94298;-74
2022/06/02 02:40:45;;;;;;;10.85;9.68;;;;;;;;;;5018381;28;91869;-74
2022/06/02 02:43:17;;;;;;;11.30;9.82;;;;;;;;;;4997451;28;93860;-74
2022/06/02 02:45:51;;;;;;;13.90;10.20;;;;;;;;;;5010477;28;92642;-74
2022/06/02 02:48:29;;;;;;;12.55;9.55;;;;;;;;;;5011090;28;94878;-74
2022/06/02 02:50:58;;;;;;;13.57;10.98;;;;;;;;;;5015999;28;93427;-74
2022/06/02 02:53:36;;;;;;;13.35;10.32;;;;;;;;;;4996845;28;92515;-75
2022/06/02 02:56:19;;;;;;;13.27;10.48;;;;;;;;;;5011863;28;93279;-74
2022/06/02 02:58:53;;;;;;;13.38;10.48;;;;;;;;;;5012501;28;94865;-74
2022/06/02 03:01:31;;;;;;;13.40;10.95;;;;;;;;;;4995084;28;92551;-75
2022/06/02 03:04:10;;;;;;;13.52;11.45;;;;;;;;;;5017219;28;94142;-74
2022/06/02 03:06:42;;;;;;;12.10;9.52;;;;;;;;;;5013271;28;93446;-76
2022/06/02 03:09:11;;;;;;;13.88;10.18;;;;;;;;;;4993984;28;92633;-74
2022/06/02 03:11:53;;;;;;;17.52;10.38;;;;;;;;;;5006157;28;93941;-75
2022/06/02 03:14:19;;;;;;;13.63;10.95;;;;;;;;;;4994558;28;94912;-74
2022/06/02 03:16:51;;;;;;;12.52;10.77;;;;;;;;;;4992976;28;95993;-75
2022/06/02 03:19:22;;;;;;;15.00;11.18;;;;;;;;;;4997152;28;95796;-74
2022/06/02 03:21:48;;;;;;;;;;;;;;;;;;4996808;28;92641;-75
2022/06/02 03:24:33;;;;;;;17.52;10.93;;;;;;;;;;5017767;28;123551;-74
2022/06/02 03:27:02;;;;;;;11.60;10.40;;;;;;;;;;5016842;28;93507;-75
2022/06/02 03:29:37;;;;;;;15.27;10.57;;;;;;;;;;5000415;28;93506;-75
2022/06/02 03:32:10;;;;;;;12.30;10.60;;;;;;;;;;5010745;28;92647;-74
2022/06/02 03:34:53;;;;;;;21.05;11.00;;;;;;;;;;5013577;28;92384;-75
2022/06/02 03:37:20;;;;;;;16.27;11.85;;;;;;;;;;5013156;28;93073;-75
2022/06/02 03:40:05;;;;;;;15.70;11.00;;;;;;;;;;4993657;28;95454;-75
2022/06/02 03:42:46;;;;;;;13.82;11.68;;;;;;;;;;5007730;28;92452;-75
2022/06/02 03:45:24;;;;;;;12.48;10.70;;;;;;;;;;5012674;28;93911;-75
2022/06/02 03:48:02;;;;;;;11.25;10.15;;;;;;;;;;5009532;28;93505;-75
2022/06/02 03:50:29;;;;;;;15.95;10.68;;;;;;;;;;5013908;28;92520;-75
2022/06/02 03:53:01;;;;;;;12.27;10.45;;;;;;;;;;4994432;28;93447;-75
2022/06/02 03:55:40;;;;;;;14.00;10.77;;;;;;;;;;5002008;28;92940;-76
2022/06/02 03:58:12;;;;;;;14.57;10.38;;;;;;;;;;4991304;28;93775;-74
2022/06/02 04:00:43;;;;;;;13.35;11.27;;;;;;;;;;5012629;28;94631;-75
2022/06/02 04:03:16;;;;;;;13.63;10.55;;;;;;;;;;5012556;28;92505;-74
2022/06/02 04:06:01;;;;;;;12.23;10.50;;;;;;;;;;5001580;28;94994;-75
2022/06/02 04:08:45;;;;;;;19.58;11.68;;;;;;;;;;5012508;28;93611;-75
2022/06/02 04:13:37;;;;;;;11.23;10.10;;;;;;;;;;5015008;28;92587;-75
2022/06/02 04:14:23;;;;;;;17.38;12.40;;;;;;;;;;5009890;28;93456;-75
2022/06/02 04:17:09;;;;;;;13.77;11.38;;;;;;;;;;4993333;28;92607;-75
2022/06/02 04:22:26;;;;;;;;;;;;;;;;;;5011809;28;94403;-75
2022/06/02 04:25:11;;;;;;;18.42;13.85;;;;;;;;;;5002805;28;120768;-75
2022/06/02 04:28:01;;;;;;;13.82;12.05;;;;;;;;;;5013048;28;92570;-75
2022/06/02 04:30:33;;;;;;;15.10;11.43;;;;;;;;;;4995043;28;93579;-74
2022/06/02 04:33:04;;;;;;;13.45;11.63;;;;;;;;;;4993069;28;94984;-75
2022/06/02 04:35:33;;;;;;;15.18;11.68;;;;;;;;;;5008926;28;96972;-76
2022/06/02 04:38:08;;;;;;;18.05;12.70;;;;;;;;;;5010192;28;92469;-76
2022/06/02 04:40:34;;;;;;;15.70;13.55;;;;;;;;;;4995438;28;92857;-76
2022/06/02 04:43:16;;;;;;;18.10;13.30;;;;;;;;;;4995278;28;94225;-76
2022/06/02 04:45:58;;;;;;;16.52;12.98;;;;;;;;;;4982555;28;93040;-76
2022/06/02 04:48:34;;;;;;;17.25;13.45;;;;;;;;;;5008470;28;93594;-76
2022/06/02 04:51:20;;;;;;;20.63;15.20;;;;;;;;;;4991750;28;92557;-76
2022/06/02 04:53:59;;;;;;;19.13;14.80;;;;;;;;;;4993840;28;92525;-76
2022/06/02 04:56:32;;;;;;;21.65;15.50;;;;;;;;;;4995024;28;93573;-76
2022/06/02 04:58:58;;;;;;;22.42;14.50;;;;;;;;;;5012606;28;96371;-76
2022/06/02 05:01:31;;;;;;;17.58;14.00;;;;;;;;;;5006596;28;95562;-76
2022/06/02 05:04:17;;;;;;;19.83;15.10;;;;;;;;;;5012118;28;94324;-75
2022/06/02 05:07:06;;;;;;;19.13;13.88;;;;;;;;;;4993805;28;92617;-76
2022/06/02 05:10:08;;;;;;;18.63;14.63;;;;;;;;;;5000434;28;93370;-76
2022/06/02 05:12:49;;;;;;;21.77;15.18;;;;;;;;;;4935930;28;94036;-75
2022/06/02 05:15:34;;;;;;;18.30;14.75;;;;;;;;;;4931421;28;94396;-75
2022/06/02 05:18:22;;;;;;;18.23;14.57;;;;;;;;;;4918323;28;93238;-75
2022/06/02 05:20:51;;;;;;;17.20;14.40;;;;;;;;;;4920369;28;93522;-75
2022/06/02 05:23:20;;;;;;;19.42;15.48;;;;;;;;;;4937733;28;92648;-75
2022/06/02 05:26:05;;;;;;;24.60;16.30;;;;;;;;;;4932551;28;95986;-75
2022/06/02 05:28:34;;;;;;;20.75;16.25;;;;;;;;;;4918289;28;92790;-76
2022/06/02 05:31:06;;;;;;;19.10;15.52;;;;;;;;;;4932150;28;94145;-75
2022/06/02 05:33:41;;;;;;;21.92;16.55;;;;;;;;;;4934099;28;93559;-76
2022/06/02 05:36:17;;;;;;;21.65;15.43;;;;;;;;;;4935451;28;93191;-75
2022/06/02 05:38:44;;;;;;;20.05;14.93;;;;;;;;;;4933775;28;93152;-75
2022/06/02 05:41:10;;;;;;;23.08;15.95;;;;;;;;;;4933760;28;93170;-75
2022/06/02 05:43:44;;;;;;;20.95;14.98;;;;;;;;;;4933985;28;91712;-76
2022/06/02 05:46:13;;;;;;;22.17;14.93;;;;;;;;;;4959605;28;94132;-77
2022/06/02 05:48:48;;;;;;;27.40;16.15;;;;;;;;;;5005583;28;92459;-77
2022/06/02 05:51:17;;;;;;;18.10;13.45;;;;;;;;;;5013782;28;95183;-77
2022/06/02 05:53:57;;;;;;;22.92;15.40;;;;;;;;;;5013224;28;93501;-77
2022/06/02 05:56:41;;;;;;;19.13;14.20;;;;;;;;;;5008236;28;92509;-77
2022/06/02 05:59:26;;;;;;;21.95;14.98;;;;;;;;;;4996372;28;93390;-77
2022/06/02 06:02:11;;;;;;;22.38;13.68;;;;;;;;;;5013869;28;93891;-77
2022/06/02 06:04:56;;;;;;;21.27;12.95;;;;;;;;;;5010976;28;92706;-77
2022/06/02 06:07:22;;;;;;;16.33;12.60;;;;;;;;;;4997858;28;93617;-77
2022/06/02 06:09:48;;;;;;;18.90;12.60;;;;;;;;;;5015232;28;92501;-79
2022/06/02 06:12:24;;;;;;;21.15;12.38;;;;;;;;;;4994184;28;92677;-77
2022/06/02 06:14:50;;;;;;;17.88;12.02;;;;;;;;;;4991829;28;95142;-77
2022/06/02 06:17:17;;;;;;;18.45;10.93;;;;;;;;;;4996388;28;94993;-77
2022/06/02 06:19:46;;;;;;;13.25;10.32;;;;;;;;;;4997430;28;95675;-77
2022/06/02 06:22:21;;;;;;;21.67;11.93;;;;;;;;;;4997456;28;93336;-77
2022/06/02 06:25:17;;;;;;;15.43;10.90;;;;;;;;;;4998626;28;92399;-77
2022/06/02 06:27:52;;;;;;;12.13;9.48;;;;;;;;;;4995223;28;94146;-77
2022/06/02 06:30:37;;;;;;;14.38;9.48;;;;;;;;;;5001519;28;92693;-77
2022/06/02 06:33:13;;;;;;;9.52;7.13;;;;;;;;;;5016573;28;93152;-78
2022/06/02 06:36:03;;;;;;;12.60;8.13;;;;;;;;;;5016463;28;93034;-78
2022/06/02 06:38:39;;;;;;;11.43;8.77;;;;;;;;;;5015171;28;92486;-77
2022/06/02 06:41:23;;;;;;;12.18;8.48;;;;;;;;;;5015458;28;93237;-77
2022/06/02 06:43:58;;;;;;;11.18;7.38;;;;;;;;;;4993589;28;95771;-77
2022/06/02 06:46:38;;;;;;;11.75;7.32;;;;;;;;;;4998314;28;92445;-77
2022/06/02 06:49:09;;;;;;;18.90;7.47;;;;;;;;;;5015963;28;93491;-77
2022/06/02 06:51:36;;;;;;;8.20;6.60;;;;;;;;;;5014127;28;93515;-77
2022/06/02 06:54:09;;;;;;;12.02;6.43;;;;;;;;;;4990455;28;92486;-77
2022/06/02 06:56:54;;;;;;;8.50;6.22;;;;;;;;;;5013793;28;93449;-78
2022/06/02 06:59:32;;;;;;;11.13;5.88;;;;;;;;;;5015443;28;92413;-77
2022/06/02 07:01:58;;;;;;;8.57;6.40;;;;;;;;;;5023231;28;97061;-77
2022/06/02 07:04:30;;;;;;;12.50;6.35;;;;;;;;;;5018215;28;96718;-78
2022/06/02 07:07:03;;;;;;;10.55;5.55;;;;;;;;;;4997160;28;92596;-77
2022/06/02 07:09:47;;;;;;;9.98;6.13;;;;;;;;;;5013403;28;94755;-78
2022/06/02 07:15:19;;;;;;;10.80;5.65;;;;;;;;;;5011058;28;92760;-77
2022/06/02 07:17:51;;;;;;;9.05;5.50;;;;;;;;;;4987345;28;93211;-77
2022/06/02 07:20:33;;;;;;;9.00;4.88;;;;;;;;;;5014957;28;92433;-77
2022/06/02 07:23:09;;;;;;;5.20;4.30;;;;;;;;;;5033594;28;93195;-77
2022/06/02 07:25:35;;;;;;;11.05;5.45;;;;;;;;;;4997982;28;94778;-77
2022/06/02 07:28:04;;;;;;;10.82;5.68;;;;;;;;;;4995060;28;91767;-77
2022/06/02 07:30:34;;;;;;;8.40;5.35;;;;;;;;;;5010245;28;92790;-77
2022/06/02 07:33:22;;;;;;;7.43;4.10;;;;;;;;;;5011903;28;93770;-76
2022/06/02 07:36:07;;;;;;;7.13;5.05;;;;;;;;;;5003491;28;94881;-76
2022/06/02 07:38:39;;;;;;;8.82;6.18;;;;;;;;;;5014422;28;95723;-76
2022/06/02 07:41:15;;;;;;;7.00;4.97;;;;;;;;;;5017653;28;93253;-76
2022/06/02 07:43:41;;;;;;;8.13;4.40;;;;;;;;;;5015419;28;93256;-76
2022/06/02 07:46:26;;;;;;;7.25;3.90;;;;;;;;;;5014075;28;94102;-76
2022/06/02 07:49:23;;;;;;;8.00;3.83;;;;;;;;;;5005761;28;92542;-76
2022/06/02 07:52:08;;;;;;;10.82;3.65;;;;;;;;;;4995247;28;93012;-76
2022/06/02 07:54:40;;;;;;;5.45;3.20;;;;;;;;;;5005296;28;92412;-77
2022/06/02 07:57:24;;;;;;;7.50;3.60;;;;;;;;;;5004723;28;93045;-76
2022/06/02 07:59:51;;;;;;;5.68;3.90;;;;;;;;;;5014163;28;93541;-76
2022/06/02 08:02:26;;;;;;;7.53;3.85;;;;;;;;;;5010955;28;95835;-76
2022/06/02 08:04:59;;;;;;;8.20;4.05;;;;;;;;;;5017527;28;92464;-76
2022/06/02 08:07:41;;;;;;;9.05;3.67;;;;;;;;;;5011626;28;93584;-76
2022/06/02 08:10:19;;;;;;;6.78;3.67;;;;;;;;;;5014030;28;92407;-75
2022/06/02 08:12:56;;;;;;;8.02;3.00;;;;;;;;;;5013838;28;93130;-75
2022/06/02 08:15:32;;;;;;;9.63;3.60;;;;;;;;;;4996472;28;93485;-76
2022/06/02 08:18:01;;;;;;;8.05;3.70;;;;;;;;;;5012692;28;92605;-76
2022/06/02 08:20:42;;;;;;;10.77;3.92;;;;;;;;;;5013351;28;92966;-76
2022/06/02 08:23:08;;;;;;;6.20;3.55;;;;;;;;;;4999185;28;93994;-76
2022/06/02 08:25:51;;;;;;;5.97;3.60;;;;;;;;;;5017457;28;92493;-76
2022/06/02 08:28:36;;;;;;;6.18;3.03;;;;;;;;;;5014477;28;97229;-78
2022/06/02 08:31:30;;;;;;;5.00;3.10;;;;;;;;;;5012921;28;92626;-78
2022/06/02 08:34:06;;;;;;;5.15;3.50;;;;;;;;;;5014833;28;94167;-79
2022/06/02 08:36:40;;;;;;;9.13;3.10;;;;;;;;;;5013070;28;93520;-79
2022/06/02 08:39:15;;;;;;;3.90;3.03;;;;;;;;;;4996588;28;92459;-78
2022/06/02 08:41:55;;;;;;;4.57;3.03;;;;;;;;;;5011869;28;94329;-79
2022/06/02 08:44:45;;;;;;;4.80;2.95;;;;;;;;;;5008614;28;92459;-78
2022/06/02 08:47:21;;;;;;;6.07;2.97;;;;;;;;;;4989047;28;92183;-77
2022/06/02 08:49:53;;;;;;;13.63;2.92;;;;;;;;;;4997121;28;92956;-77
2022/06/02 08:52:43;;;;;;;12.20;3.17;;;;;;;;;;4995729;28;92511;-77
2022/06/02 08:55:29;;;;;;;8.20;3.28;;;;;;;;;;4986540;28;94977;-78
2022/06/02 08:58:11;;;;;;;4.72;2.60;;;;;;;;;;4979497;28;94404;-77
2022/06/02 09:00:56;;;;;;;3.92;2.40;;;;;;;;;;5001113;28;92832;-76
2022/06/02 09:03:36;;;;;;;4.85;3.13;;;;;;;;;;5003906;28;94084;-77
2022/06/02 09:06:03;;;;;;;7.20;2.72;;;;;;;;;;4995443;28;93487;-77
2022/06/02 09:08:51;;;;;;;4.57;2.47;;;;;;;;;;5012271;28;92443;-77
2022/06/02 09:11:39;;;;;;;6.78;2.50;;;;;;;;;;5003093;28;92547;-77
2022/06/02 09:14:24;;;;;;;6.18;1.98;;;;;;;;;;5000932;28;93596;-76
2022/06/02 09:17:09;;;;;;;3.38;1.73;;;;;;;;;;4994616;28;94531;-74
2022/06/02 09:19:38;;;;;;;2.92;1.65;;;;;;;;;;4995901;28;93624;-75
2022/06/02 09:22:16;;;;;;;3.65;1.75;;;;;;;;;;5011836;28;94991;-74
2022/06/02 09:24:49;;;;;;;6.15;1.80;;;;;;;;;;5015465;28;95676;-75
2022/06/02 09:27:34;;;;;;;2.35;1.38;;;;;;;;;;5010032;28;93560;-75
2022/06/02 09:30:03;;;;;;;3.30;1.85;;;;;;;;;;4994351;28;92612;-75
2022/06/02 09:32:35;;;;;;;2.63;1.75;;;;;;;;;;4996159;28;93369;-75
2022/06/02 09:35:07;;;;;;;6.38;1.85;;;;;;;;;;5013669;28;93449;-75
2022/06/02 09:37:36;;;;;;;3.88;2.10;;;;;;;;;;5014099;28;92846;-75
2022/06/02 09:40:19;;;;;;;2.72;2.10;;;;;;;;;;4996660;28;92970;-75
2022/06/02 09:42:48;;;;;;;5.18;2.50;;;;;;;;;;5013524;28;92422;-74
2022/06/02 09:45:33;;;;;;;7.90;2.08;;;;;;;;;;5010923;28;93240;-75
2022/06/02 09:48:38;;;;;;;2.92;2.22;;;;;;;;;;4992173;28;95840;-74
2022/06/02 09:51:14;;;;;;;5.38;2.45;;;;;;;;;;5002959;28;92605;-75
2022/06/02 09:53:44;;;;;;;6.68;2.33;;;;;;;;;;5012632;28;93935;-75
2022/06/02 09:56:28;;;;;;;10.18;2.78;;;;;;;;;;4994722;28;93963;-74
2022/06/02 09:59:17;;;;;;;6.00;2.28;;;;;;;;;;5015780;28;92510;-75
2022/06/02 10:01:44;;;;;;;4.07;2.45;;;;;;;;;;5001231;28;94821;-75
2022/06/02 10:04:17;;;;;;;2.80;2.00;;;;;;;;;;4999682;28;92702;-75
2022/06/02 10:06:57;;;;;;;93.40;9.95;;;;;;;;;;5013462;28;91944;-75
2022/06/02 10:09:29;;;;;;;49.80;6.30;;;;;;;;;;5015950;28;93685;-75
2022/06/02 10:14:56;;;;;;;7.88;2.55;;;;;;;;;;5014656;28;94974;-75
2022/06/02 10:17:27;;;;;;;3.13;2.40;;;;;;;;;;5010362;28;94532;-75
2022/06/02 10:19:53;;;;;;;3.15;1.73;;;;;;;;;;4998315;28;93220;-75
2022/06/02 10:22:32;;;;;;;2.10;1.90;;;;;;;;;;5014418;28;93195;-74
2022/06/02 10:24:58;;;;;;;6.60;2.28;;;;;;;;;;5030271;28;94001;-75
2022/06/02 10:27:25;;;;;;;5.97;2.33;;;;;;;;;;5016626;28;93462;-74
2022/06/02 10:30:10;;;;;;;6.30;2.28;;;;;;;;;;5016053;28;94032;-75
2022/06/02 10:32:36;;;;;;;7.55;2.33;;;;;;;;;;4993031;28;91773;-75
2022/06/02 10:35:08;;;;;;;4.32;1.65;;;;;;;;;;5002978;28;92566;-75
2022/06/02 10:37:47;;;;;;;4.68;1.70;;;;;;;;;;5016268;28;93460;-75
2022/06/02 10:40:33;;;;;;;9.48;1.80;;;;;;;;;;4997161;28;94783;-75
2022/06/02 10:43:18;;;;;;;5.22;1.50;;;;;;;;;;4997215;28;95907;-75
2022/06/02 10:45:54;;;;;;;6.43;1.85;;;;;;;;;;4997774;28;93416;-74
2022/06/02 10:48:38;;;;;;;5.32;1.80;;;;;;;;;;5019565;28;92475;-75
2022/06/02 10:51:23;;;;;;;82.32;8.55;;;;;;;;;;5014061;28;93700;-74
2022/06/02 10:54:08;;;;;;;4.07;1.95;;;;;;;;;;5016190;28;92531;-75
2022/06/02 10:56:41;;;;;;;5.50;1.67;;;;;;;;;;5016453;28;92929;-75
2022/06/02 10:59:13;;;;;;;2.55;1.52;;;;;;;;;;5016129;28;93326;-75
2022/06/02 11:01:45;;;;;;;12.15;1.70;;;;;;;;;;4992585;28;92591;-75
2022/06/02 11:04:30;;;;;;;441.35;46.88;;;;;;;;;;5013745;28;93285;-75
2022/06/02 11:07:22;;;;;;;5.55;2.10;;;;;;;;;;4996306;28;95944;-75
2022/06/02 11:10:07;;;;;;;16.17;2.50;;;;;;;;;;5016797;28;93065;-75
2022/06/02 11:12:49;;;;;;;2.72;1.63;;;;;;;;;;5014678;28;93337;-75
2022/06/02 11:15:34;;;;;;;1.98;1.63;;;;;;;;;;4997743;28;92503;-74
2022/06/02 11:18:13;;;;;;;4.05;1.58;;;;;;;;;;5014817;28;92979;-75
2022/06/02 11:21:00;;;;;;;6.20;1.60;;;;;;;;;;4997210;28;93547;-74
2022/06/02 11:23:26;;;;;;;3.33;1.52;;;;;;;;;;5019790;28;92520;-75
2022/06/02 11:26:07;;;;;;;5.07;2.10;;;;;;;;;;5036689;28;94189;-75
2022/06/02 11:28:44;;;;;;;3.17;2.20;;;;;;;;;;5003956;28;93625;-75
2022/06/02 11:31:17;;;;;;;4.60;2.13;;;;;;;;;;5015771;28;92481;-74
2022/06/02 11:33:49;;;;;;;3.13;2.22;;;;;;;;;;4996220;28;95263;-75
2022/06/02 11:36:16;;;;;;;86.72;8.82;;;;;;;;;;4998002;28;92552;-75
2022/06/02 11:38:51;;;;;;;5.57;2.15;;;;;;;;;;5015397;28;93327;-75
2022/06/02 11:41:22;;;;;;;63.08;6.75;;;;;;;;;;5013970;28;93641;-75
2022/06/02 11:43:54;;;;;;;4.57;2.25;;;;;;;;;;4996113;28;92490;-75
2022/06/02 11:46:32;;;;;;;7.30;2.30;;;;;;;;;;5010790;28;93147;-75
2022/06/02 11:49:02;;;;;;;5.17;1.90;;;;;;;;;;5006060;28;92469;-75
2022/06/02 11:51:38;;;;;;;5.45;2.28;;;;;;;;;;5007092;28;93376;-75
2022/06/02 11:54:05;;;;;;;6.80;2.28;;;;;;;;;;5012097;28;92643;-76
2022/06/02 11:56:56;;;;;;;3.47;2.45;;;;;;;;;;5017313;28;93833;-75
2022/06/02 11:59:25;;;;;;;5.63;2.00;;;;;;;;;;5012815;28;94899;-74
2022/06/02 12:01:55;;;;;;;12.47;2.97;;;;;;;;;;4995675;28;93810;-74
2022/06/02 12:04:27;;;;;;;8.27;2.30;;;;;;;;;;4995966;28;92565;-75
2022/06/02 12:07:12;;;;;;;3.10;1.80;;;;;;;;;;5015047;28;93416;-75
2022/06/02 12:09:38;;;;;;;2.63;1.58;;;;;;;;;;4997114;28;93517;-75
2022/06/02 12:12:20;;;;;;;2.92;1.50;;;;;;;;;;4995396;28;92429;-74
2022/06/02 12:14:55;;;;;;;4.07;2.20;;;;;;;;;;5013001;28;93751;-75
2022/06/02 12:17:32;;;;;;;2.70;2.05;;;;;;;;;;5013564;28;93782;-75
2022/06/02 12:19:58;;;;;;;4.38;1.92;;;;;;;;;;5017304;28;92577;-74
2022/06/02 12:22:30;;;;;;;6.18;1.80;;;;;;;;;;5012905;28;94513;-75
2022/06/02 12:24:59;;;;;;;5.00;2.00;;;;;;;;;;5030652;28;94869;-75
2022/06/02 12:27:31;;;;;;;4.45;2.30;;;;;;;;;;5012797;28;95543;-75
2022/06/02 12:30:23;;;;;;;14.70;2.20;;;;;;;;;;5013906;28;93460;-75
2022/06/02 12:32:59;;;;;;;2.88;2.10;;;;;;;;;;4973563;28;92539;-75
2022/06/02 12:35:28;;;;;;;10.05;2.10;;;;;;;;;;5014307;28;92778;-75
2022/06/02 12:37:54;;;;;;;5.25;2.00;;;;;;;;;;5013044;28;93251;-75
2022/06/02 12:40:30;;;;;;;5.30;2.10;;;;;;;;;;5012922;28;92506;-76
2022/06/02 12:43:12;;;;;;;2.38;1.33;;;;;;;;;;4998721;28;93141;-74
2022/06/02 12:45:49;;;;;;;6.05;1.95;;;;;;;;;;5000736;28;92381;-75
2022/06/02 12:48:18;;;;;;;9.43;2.05;;;;;;;;;;5012625;28;93042;-74
2022/06/02 12:51:03;;;;;;;3.45;1.92;;;;;;;;;;4994211;28;96297;-74
2022/06/02 12:53:41;;;;;;;2.92;1.50;;;;;;;;;;5016203;28;92588;-75
2022/06/02 12:56:36;;;;;;;4.90;1.88;;;;;;;;;;5014180;28;93322;-74
2022/06/02 12:59:14;;;;;;;55.08;6.47;;;;;;;;;;4909189;28;94273;-76
2022/06/02 13:02:04;;;;;;;6.47;2.20;;;;;;;;;;4897768;28;92522;-75
2022/06/02 13:04:43;;;;;;;4.10;1.98;;;;;;;;;;4916921;28;93083;-75
2022/06/02 13:07:09;;;;;;;1.90;1.77;;;;;;;;;;4912050;28;92674;-75
2022/06/02 13:09:36;;;;;;;4.72;1.73;;;;;;;;;;4915264;28;93469;-75
2022/06/02 13:12:14;;;;;;;3.92;1.75;;;;;;;;;;4897334;28;93918;-74
2022/06/02 13:15:05;;;;;;;4.75;1.80;;;;;;;;;;4913684;28;92532;-74
2022/06/02 13:17:50;;;;;;;3.60;1.75;;;;;;;;;;4908556;28;95248;-72
2022/06/02 13:20:32;;;;;;;3.60;1.50;;;;;;;;;;4912592;28;93544;-76
2022/06/02 13:22:58;;;;;;;2.05;1.90;;;;;;;;;;4896369;28;94142;-76
2022/06/02 13:25:29;;;;;;;5.75;1.67;;;;;;;;;;4913646;28;93308;-76
2022/06/02 13:27:56;;;;;;;4.95;1.77;;;;;;;;;;4900631;28;93534;-76
2022/06/02 13:30:39;;;;;;;3.05;1.20;;;;;;;;;;4912765;28;93179;-77
2022/06/02 13:33:17;;;;;;;4.22;1.92;;;;;;;;;;4916435;28;93672;-77
2022/06/02 13:35:47;;;;;;;3.47;1.73;;;;;;;;;;4972417;28;91726;-76
2022/06/02 13:38:18;;;;;;;2.35;1.35;;;;;;;;;;5013878;28;92441;-80
2022/06/02 13:40:52;;;;;;;1.70;1.23;;;;;;;;;;5017226;28;93712;-79
2022/06/02 13:43:21;;;;;;;2.08;1.60;;;;;;;;;;5014435;28;94876;-76
2022/06/02 13:45:59;;;;;;;1.80;1.30;;;;;;;;;;5016976;28;94732;-75
2022/06/02 13:48:29;;;;;;;3.85;1.77;;;;;;;;;;5014898;28;93598;-75
2022/06/02 13:50:55;;;;;;;10.05;1.95;;;;;;;;;;4999382;28;92469;-75
2022/06/02 13:53:30;;;;;;;1.90;1.38;;;;;;;;;;5003542;28;93564;-81
2022/06/02 13:58:47;;;;;;;2.35;1.40;;;;;;;;;;5016732;28;93475;-76
2022/06/02 14:01:16;;;;;;;4.53;1.45;;;;;;;;;;5016453;28;92745;-76
2022/06/02 14:03:59;;;;;;;1.30;1.07;;;;;;;;;;5015888;28;92877;-76
2022/06/02 14:06:27;;;;;;;2.90;1.10;;;;;;;;;;5016181;28;93270;-76
2022/06/02 14:08:54;;;;;;;4.35;0.98;;;;;;;;;;4997115;28;95840;-76
2022/06/02 14:11:39;;;;;;;7.03;1.50;;;;;;;;;;5015837;28;92546;-76
2022/06/02 14:14:24;;;;;;;2.65;1.38;;;;;;;;;;5019011;28;93177;-76
2022/06/02 14:17:02;;;;;;;1.30;1.20;;;;;;;;;;5013508;28;92487;-76
2022/06/02 14:19:29;;;;;;;2.40;1.50;;;;;;;;;;5016266;28;94307;-83
2022/06/02 14:22:01;;;;;;;4.47;1.38;;;;;;;;;;5016752;28;93643;-78
2022/06/02 14:24:33;;;;;;;2.80;1.33;;;;;;;;;;5015934;28;92629;-78
2022/06/02 14:27:08;;;;;;;5.60;1.70;;;;;;;;;;5014281;28;93144;-79
2022/06/02 14:29:35;;;;;;;1.75;1.65;;;;;;;;;;5015110;28;93465;-78
2022/06/02 14:32:01;;;;;;;4.20;1.67;;;;;;;;;;5014321;28;92490;-77
2022/06/02 14:34:48;;;;;;;2.08;1.60;;;;;;;;;;4995902;28;94928;-77
2022/06/02 14:37:28;;;;;;;2.58;1.20;;;;;;;;;;4975766;28;93532;-77
2022/06/02 14:40:17;;;;;;;1.02;1.00;;;;;;;;;;4998818;28;93668;-77
2022/06/02 14:43:04;;;;;;;2.78;1.35;;;;;;;;;;5015898;28;93412;-82
2022/06/02 14:45:50;;;;;;;2.95;1.40;;;;;;;;;;4991416;28;92599;-83
2022/06/02 14:48:19;;;;;;;7.88;1.23;;;;;;;;;;4987588;28;94196;-83
2022/06/02 14:50:54;;;;;;;5.32;2.30;;;;;;;;;;4998814;28;94473;-82
2022/06/02 14:53:20;;;;;;;36.83;31.30;;;;;;;;;;4999643;28;91696;-80
2022/06/02 14:55:59;;;;;;;7.53;5.18;;;;;;;;;;4997753;28;93470;-83
2022/06/02 14:58:28;;;;;;;573.88;306.55;;;;;;;;;;4995449;28;93386;-81
2022/06/02 15:01:06;;;;;;;80.70;49.85;;;;;;;;;;4978817;28;94857;-83
2022/06/02 15:03:52;;;;;;;345.55;276.77;;;;;;;;;;4985125;28;93485;-81
2022/06/02 15:06:36;;;;;;;20.25;12.02;;;;;;;;;;5013543;28;92527;-81
2022/06/02 15:09:15;;;;;;;3.83;2.63;;;;;;;;;;5013258;28;94765;-82
2022/06/02 15:11:47;;;;;;;2.90;2.38;;;;;;;;;;4998928;28;94510;-81
2022/06/02 15:14:22;;;;;;;5.68;1.65;;;;;;;;;;4993670;28;92662;-79
2022/06/02 15:16:51;;;;;;;2.25;1.40;;;;;;;;;;5011883;28;93200;-80
2022/06/02 15:19:36;;;;;;;5.50;2.22;;;;;;;;;;5008910;28;92909;-81
2022/06/02 15:22:38;;;;;;;2.33;1.50;;;;;;;;;;5017878;28;93116;-79
2022/06/02 15:25:23;;;;;;;4.45;1.77;;;;;;;;;;4998693;28;93432;-80
2022/06/02 15:28:02;;;;;;;3.50;1.40;;;;;;;;;;5014195;28;95000;-80
2022/06/02 15:30:47;;;;;;;4.47;2.10;;;;;;;;;;4997060;28;94671;-78
2022/06/02 15:33:16;;;;;;;6.78;1.90;;;;;;;;;;5014269;28;93569;-80
2022/06/02 15:35:42;;;;;;;3.03;1.50;;;;;;;;;;4996635;28;92525;-78
2022/06/02 15:38:27;;;;;;;5.00;1.27;;;;;;;;;;5009044;28;93393;-80
2022/06/02 15:41:12;;;;;;;5.25;1.67;;;;;;;;;;4990180;28;93239;-78
2022/06/02 15:43:50;;;;;;;14.02;1.83;;;;;;;;;;5014903;28;92417;-78
2022/06/02 15:46:35;;;;;;;3.75;1.20;;;;;;;;;;5017291;28;93258;-80